Baxter, Arkansas
Current Conditions -  °F | °C
As of 1:53 PM on Monday 26 Jan 2015 (Local Time) from KLLQ Reporting Station
Clear Clear  
Wind Chill: 54°   Ceiling: Unl
Heat Index: 54°   Visibility: 10mi
Dew Point: 31°   Wind: 5mph
Humidity: 41%   Direction: NA
Pressure: 30.07"   Gusts: NA
Location:  33.4898°N, 91.4556°W
Report Text: KLLQ 261953Z AUTO VRB04KT 10SM CLR 12/M01 A3007 RMK AO2 RAB30E43 SLP181 P0000 T01221006
Loading
Personal Weather Stations






























Interactive Weather Map New forecast layout! Learn more

10-Day Weather Forecast

Advertisements
Track Severe Weather on mobile